Cape Hatteras Natl Seashore, North Carolina
Current Conditions -  °F | °C
As of 12:51 PM on Saturday 25 Oct 2014 (Local Time) from KHSE Reporting Station
Clear Clear  
Wind Chill: 65°   Ceiling: Unl
Heat Index: 65°   Visibility: 10mi
Dew Point: 55°   Wind: 7mph
Humidity: 70%   Direction: 340°NNW
Pressure: 29.95"   Gusts: NA
Location:  35.22°N, 75.68°W
Report Text: KHSE 251651Z AUTO 34006KT 10SM CLR 18/13 A2995 RMK AO2 SLP141 T01830128 TSNO
Loading
Personal Weather Stations






























Interactive Weather Map
Tropical Storm Tracking
New forecast layout! Learn more

10-Day Weather Forecast

Advertisements
Track Severe Weather on mobile